Time;durP1;ratioP1;P1;durP2;ratioP2;P2;SDS_P1;SDS_P2;PMS_P1;PMS_P2;Temp;Humidity;BMP_temperature;BMP_pressure;BME280_temperature;BME280_humidity;BME280_pressure;Samples;Min_cycle;Max_cycle;Signal;HPM_P1;HPM_P2
2023/08/21 00:00:00;;;;;;;;;;;;;;;25.64;66.29;98470.66;5069292;28;20282;-68
2023/08/21 00:02:28;;;;;;;;;;;;;;;25.61;66.40;98472.25;5070462;28;19930;-66
2023/08/21 00:04:56;;;;;;;;;;;;;;;25.66;66.36;98473.84;5088642;28;19931;-67
2023/08/21 00:07:24;;;;;;;;;;;;;;;25.67;66.41;98467.84;5087699;28;19924;-66
2023/08/21 00:09:52;;;;;;;;;;;;;;;25.68;66.15;98471.47;5088745;28;19932;-67
2023/08/21 00:12:20;;;;;;;;;;;;;;;25.63;66.29;98469.09;5068488;28;19932;-67
2023/08/21 00:14:49;;;;;;;;;;;;;;;25.64;65.81;98468.66;5089530;28;20373;-66
2023/08/21 00:17:17;;;;;;;;;;;;;;;25.66;65.65;98471.03;5067785;28;19924;-66
2023/08/21 00:19:45;;;;;;;;;;;;;;;25.52;66.29;98467.09;5083165;28;19924;-67
2023/08/21 00:22:13;;;;;;;;;;;;;;;25.54;66.05;98475.03;5088165;28;19930;-66
2023/08/21 00:24:41;;;;;;;;;;;;;;;25.50;66.43;98475.03;5088733;28;20446;-66
2023/08/21 00:27:09;;;;;;;;;;;;;;;25.49;66.68;98467.09;5069578;28;20642;-66
2023/08/21 00:29:37;;;;;;;;;;;;;;;25.51;66.70;98476.59;5066499;28;21199;-66
2023/08/21 00:32:06;;;;;;;;;;;;;;;25.51;66.62;98471.03;5067877;28;20270;-66
2023/08/21 00:34:34;;;;;;;;;;;;;;;25.44;66.47;98484.97;5066054;28;19925;-66
2023/08/21 00:37:02;;;;;;;;;;;;;;;25.36;67.01;98479.81;5074606;28;19947;-68
2023/08/21 00:39:30;;;;;;;;;;;;;;;25.30;67.17;98477.41;5079176;28;19936;-66
2023/08/21 00:41:58;;;;;;;;;;;;;;;25.39;67.33;98468.66;5068350;28;19947;-66
2023/08/21 00:44:26;;;;;;;;;;;;;;;25.36;67.54;98469.47;5075317;28;19930;-66
2023/08/21 00:46:54;;;;;;;;;;;;;;;25.25;67.47;98458.34;5067490;28;19928;-66
2023/08/21 00:49:23;;;;;;;;;;;;;;;25.26;67.56;98465.47;5071743;28;20666;-66
2023/08/21 00:51:51;;;;;;;;;;;;;;;25.23;67.59;98459.91;5092786;28;19932;-67
2023/08/21 00:54:19;;;;;;;;;;;;;;;25.15;67.64;98469.44;5069607;28;19931;-67
2023/08/21 00:56:47;;;;;;;;;;;;;;;25.20;67.58;98471.84;5073571;28;20047;-66
2023/08/21 00:59:17;;;;;;;;;;;;;;;25.25;67.59;98469.47;5073771;28;19924;-67
2023/08/21 01:01:45;;;;;;;;;;;;;;;25.31;67.07;98467.09;5067937;28;19934;-67
2023/08/21 01:04:13;;;;;;;;;;;;;;;25.21;67.57;98467.88;5075260;28;19928;-66
2023/08/21 01:06:43;;;;;;;;;;;;;;;25.22;67.42;98466.66;5074448;28;19924;-67
2023/08/21 01:09:13;;;;;;;;;;;;;;;25.16;67.81;98466.25;5072194;28;19939;-66
2023/08/21 01:11:42;;;;;;;;;;;;;;;25.19;67.59;98471.00;5071931;28;19934;-66
2023/08/21 01:14:11;;;;;;;;;;;;;;;25.17;67.93;98478.97;5072480;28;19924;-66
2023/08/21 01:16:42;;;;;;;;;;;;;;;25.14;67.96;98498.41;5069799;28;19927;-66
2023/08/21 01:19:10;;;;;;;;;;;;;;;25.13;68.26;98514.31;5084085;28;19927;-67
2023/08/21 01:21:38;;;;;;;;;;;;;;;25.12;68.47;98520.28;5073996;28;19928;-66
2023/08/21 01:24:09;;;;;;;;;;;;;;;25.01;69.92;98521.00;5073284;28;20015;-66
2023/08/21 01:26:36;;;;;;;;;;;;;;;25.03;69.89;98499.16;5073251;28;19924;-68
2023/08/21 01:29:04;;;;;;;;;;;;;;;25.00;72.75;98508.28;5100132;28;20385;-66
2023/08/21 01:31:33;;;;;;;;;;;;;;;24.95;76.08;98494.78;5073682;28;19930;-66
2023/08/21 01:34:04;;;;;;;;;;;;;;;24.93;76.01;98477.72;5073927;28;19999;-66
2023/08/21 01:36:32;;;;;;;;;;;;;;;24.77;77.39;98472.50;5073949;28;19930;-66
2023/08/21 01:38:59;;;;;;;;;;;;;;;24.69;79.54;98482.00;5092019;28;19924;-65
2023/08/21 01:41:29;;;;;;;;;;;;;;;24.53;79.79;98478.75;5089869;28;19924;-66
2023/08/21 01:43:57;;;;;;;;;;;;;;;24.54;80.40;98474.78;5083908;28;19924;-66
2023/08/21 01:46:25;;;;;;;;;;;;;;;24.56;80.33;98473.22;5072718;28;19924;-65
2023/08/21 01:48:53;;;;;;;;;;;;;;;24.54;80.10;98464.47;5057276;28;19933;-65
2023/08/21 01:51:21;;;;;;;;;;;;;;;24.55;80.94;98466.09;5070894;28;19927;-67
2023/08/21 01:53:49;;;;;;;;;;;;;;;24.59;80.37;98470.84;5063473;28;19924;-67
2023/08/21 01:56:17;;;;;;;;;;;;;;;24.61;80.24;98460.13;5060792;28;20580;-64
2023/08/21 01:58:46;;;;;;;;;;;;;;;24.65;79.73;98461.72;5056880;28;20322;-66
2023/08/21 02:01:14;;;;;;;;;;;;;;;24.66;80.26;98465.28;5060789;28;20411;-66
2023/08/21 02:03:42;;;;;;;;;;;;;;;24.65;80.08;98466.50;5064464;28;19931;-66
2023/08/21 02:06:11;;;;;;;;;;;;;;;24.54;80.20;98463.66;5064583;28;19928;-66
2023/08/21 02:08:39;;;;;;;;;;;;;;;24.46;80.23;98462.84;5064842;28;19924;-65
2023/08/21 02:11:07;;;;;;;;;;;;;;;24.43;80.08;98458.06;5039959;28;19931;-66
2023/08/21 02:13:35;;;;;;;;;;;;;;;24.45;80.56;98466.00;5064634;28;19932;-67
2023/08/21 02:16:04;;;;;;;;;;;;;;;24.46;80.99;98451.75;5053324;28;19990;-65
2023/08/21 02:18:32;;;;;;;;;;;;;;;24.41;80.84;98454.09;5046231;28;19928;-66
2023/08/21 02:21:01;;;;;;;;;;;;;;;24.45;80.84;98457.69;5055189;28;19925;-65
2023/08/21 02:23:29;;;;;;;;;;;;;;;24.30;81.86;98471.47;5064296;28;20043;-64
2023/08/21 02:25:57;;;;;;;;;;;;;;;24.19;82.12;98465.09;5050623;28;19935;-66
2023/08/21 02:28:25;;;;;;;;;;;;;;;24.36;81.64;98462.81;5057315;28;19929;-67
2023/08/21 02:30:53;;;;;;;;;;;;;;;24.43;81.28;98463.63;5060222;28;19929;-65
2023/08/21 02:33:25;;;;;;;;;;;;;;;24.37;80.66;98461.63;5058264;28;19975;-67
2023/08/21 02:35:53;;;;;;;;;;;;;;;24.42;81.48;98466.81;5063026;28;19931;-66
2023/08/21 02:38:21;;;;;;;;;;;;;;;24.28;81.88;98464.72;5065891;28;19924;-66
2023/08/21 02:40:49;;;;;;;;;;;;;;;24.20;82.33;98471.44;5069950;28;20340;-66
2023/08/21 02:43:17;;;;;;;;;;;;;;;24.16;82.31;98476.16;5064828;28;19958;-67
2023/08/21 02:45:45;;;;;;;;;;;;;;;24.29;81.35;98475.44;5041762;28;19928;-66
2023/08/21 02:48:13;;;;;;;;;;;;;;;24.35;81.16;98473.13;5064990;28;19928;-65
2023/08/21 02:50:42;;;;;;;;;;;;;;;24.40;80.98;98474.75;5052511;28;19928;-64
2023/08/21 02:53:12;;;;;;;;;;;;;;;24.42;80.26;98472.34;5056525;28;19928;-64
2023/08/21 02:55:40;;;;;;;;;;;;;;;24.44;80.41;98470.75;5066128;28;20312;-66
2023/08/21 02:58:08;;;;;;;;;;;;;;;24.44;80.25;98468.00;5072067;28;20688;-66
2023/08/21 03:00:38;;;;;;;;;;;;;;;24.42;80.60;98458.47;5070613;28;19928;-64
2023/08/21 03:03:07;;;;;;;;;;;;;;;24.45;80.31;98466.00;5070671;28;19939;-66
2023/08/21 03:05:35;;;;;;;;;;;;;;;24.44;80.21;98470.75;5070292;28;19935;-67
2023/08/21 03:08:04;;;;;;;;;;;;;;;24.43;80.28;98471.97;5070829;28;19928;-67
2023/08/21 03:10:33;;;;;;;;;;;;;;;24.23;81.66;98473.41;5070000;28;19931;-66
2023/08/21 03:13:01;;;;;;;;;;;;;;;24.19;82.05;98465.09;5059366;28;19931;-66
2023/08/21 03:15:29;;;;;;;;;;;;;;;24.28;81.15;98470.25;5068129;28;20301;-67
2023/08/21 03:17:58;;;;;;;;;;;;;;;24.15;82.08;98472.59;5064999;28;20355;-67
2023/08/21 03:20:25;;;;;;;;;;;;;;;24.15;81.91;98469.81;5070565;28;20377;-67
2023/08/21 03:22:53;;;;;;;;;;;;;;;24.21;81.65;98471.03;5103217;28;19955;-65
2023/08/21 03:25:25;;;;;;;;;;;;;;;24.24;81.48;98470.25;5071654;28;19930;-65
2023/08/21 03:27:53;;;;;;;;;;;;;;;24.24;80.96;98473.03;5068055;28;20365;-65
2023/08/21 03:30:23;;;;;;;;;;;;;;;24.22;81.29;98480.16;5071336;28;19928;-64
2023/08/21 03:32:50;;;;;;;;;;;;;;;23.98;81.82;98476.84;5069222;28;19979;-65
2023/08/21 03:35:19;;;;;;;;;;;;;;;24.11;81.41;98465.41;5072394;28;20036;-67
2023/08/21 03:37:48;;;;;;;;;;;;;;;24.11;81.69;98469.00;5088431;28;19956;-65
2023/08/21 03:40:15;;;;;;;;;;;;;;;24.13;81.19;98468.59;5070428;28;20021;-65
2023/08/21 03:42:45;;;;;;;;;;;;;;;24.15;81.50;98474.56;5069200;28;20297;-65
2023/08/21 03:45:12;;;;;;;;;;;;;;;24.16;81.89;98474.16;5076092;28;19931;-65
2023/08/21 03:47:40;;;;;;;;;;;;;;;24.08;81.45;98475.31;5070982;28;19928;-64
2023/08/21 03:50:16;;;;;;;;;;;;;;;23.99;81.74;98472.88;5070361;28;20678;-64
2023/08/21 03:52:46;;;;;;;;;;;;;;;24.04;81.67;98469.75;5066364;28;20011;-65
2023/08/21 03:55:14;;;;;;;;;;;;;;;24.07;81.63;98479.25;5062612;28;19924;-65
2023/08/21 03:57:45;;;;;;;;;;;;;;;24.07;82.10;98478.47;5058758;28;19939;-66
2023/08/21 04:00:14;;;;;;;;;;;;;;;24.05;81.84;98488.00;5053795;28;20019;-65
2023/08/21 04:02:42;;;;;;;;;;;;;;;24.08;81.52;98486.44;5053507;28;19924;-65
2023/08/21 04:05:11;;;;;;;;;;;;;;;24.08;80.68;98482.88;5057153;28;19928;-65
2023/08/21 04:07:39;;;;;;;;;;;;;;;23.94;81.78;98480.78;5062505;28;19924;-64
2023/08/21 04:10:08;;;;;;;;;;;;;;;23.99;81.28;98481.22;5065395;28;20377;-67
2023/08/21 04:12:36;;;;;;;;;;;;;;;23.94;82.43;98483.56;5048873;28;19975;-65
2023/08/21 04:15:07;;;;;;;;;;;;;;;23.83;82.82;98491.81;5100675;28;19931;-64
2023/08/21 04:17:35;;;;;;;;;;;;;;;23.95;82.23;98493.47;5063074;28;19925;-65
2023/08/21 04:20:03;;;;;;;;;;;;;;;23.91;81.63;98476.78;5048872;28;19975;-65
2023/08/21 04:22:31;;;;;;;;;;;;;;;23.98;81.66;98498.25;5059139;28;19928;-65
2023/08/21 04:25:01;;;;;;;;;;;;;;;23.98;81.50;98493.50;5059259;28;19954;-65
2023/08/21 04:27:29;;;;;;;;;;;;;;;24.00;81.13;98491.13;5056588;28;19925;-65
2023/08/21 04:29:56;;;;;;;;;;;;;;;23.77;82.47;98490.56;5051937;28;19932;-65
2023/08/21 04:32:25;;;;;;;;;;;;;;;23.70;82.37;98498.81;5046160;28;20619;-66
2023/08/21 04:34:54;;;;;;;;;;;;;;;23.56;82.77;98493.16;5047648;28;20336;-65
2023/08/21 04:37:22;;;;;;;;;;;;;;;23.63;82.61;98501.56;5053734;28;20558;-65
2023/08/21 04:39:51;;;;;;;;;;;;;;;23.73;82.19;98495.28;5053481;28;19925;-67
2023/08/21 04:42:19;;;;;;;;;;;;;;;23.81;81.92;98498.91;5066787;28;19979;-65
2023/08/21 04:44:47;;;;;;;;;;;;;;;23.81;81.02;98498.91;5059439;28;20330;-65
2023/08/21 04:47:20;;;;;;;;;;;;;;;23.74;80.83;98494.91;5082007;28;19929;-66
2023/08/21 04:49:51;;;;;;;;;;;;;;;23.76;80.61;98498.09;5062733;28;20386;-65
2023/08/21 04:52:19;;;;;;;;;;;;;;;23.81;80.86;98496.94;5047842;28;20404;-65
2023/08/21 04:54:47;;;;;;;;;;;;;;;23.77;81.30;98496.13;5058111;28;19925;-65
2023/08/21 04:57:15;;;;;;;;;;;;;;;23.74;81.47;98496.88;5050778;28;19959;-65
2023/08/21 04:59:43;;;;;;;;;;;;;;;23.64;81.59;98506.72;5051020;28;20093;-66
2023/08/21 05:02:12;;;;;;;;;;;;;;;23.59;81.89;98498.72;5044203;28;19960;-66
2023/08/21 05:04:40;;;;;;;;;;;;;;;23.68;81.41;98509.53;5036214;28;20010;-65
2023/08/21 05:07:10;;;;;;;;;;;;;;;23.76;81.55;98511.97;5050061;28;19929;-65
2023/08/21 05:09:39;;;;;;;;;;;;;;;23.74;80.90;98506.00;5042009;28;19925;-65
2023/08/21 05:12:09;;;;;;;;;;;;;;;23.79;80.92;98507.63;5050335;28;19933;-65
2023/08/21 05:14:37;;;;;;;;;;;;;;;23.79;81.60;98507.63;5077451;28;19925;-65
2023/08/21 05:17:05;;;;;;;;;;;;;;;23.85;80.67;98505.28;5051776;28;19939;-65
2023/08/21 05:19:33;;;;;;;;;;;;;;;23.80;80.56;98511.97;5041553;28;20415;-65
2023/08/21 05:22:01;;;;;;;;;;;;;;;23.83;80.12;98516.78;5051384;28;20023;-65
2023/08/21 05:24:32;;;;;;;;;;;;;;;23.87;80.02;98517.59;5055147;28;20009;-65
2023/08/21 05:27:04;;;;;;;;;;;;;;;23.79;81.42;98515.94;5048923;28;19935;-65
2023/08/21 05:29:32;;;;;;;;;;;;;;;23.88;80.98;98516.41;5044399;28;20285;-65
2023/08/21 05:32:00;;;;;;;;;;;;;;;23.89;80.84;98518.00;5049883;28;19925;-65
2023/08/21 05:34:28;;;;;;;;;;;;;;;23.68;81.25;98513.09;5047495;28;19936;-66
2023/08/21 05:36:56;;;;;;;;;;;;;;;23.72;81.00;98515.91;5055017;28;19929;-66
2023/08/21 05:39:25;;;;;;;;;;;;;;;23.82;80.42;98517.97;5051569;28;19924;-65
2023/08/21 05:41:55;;;;;;;;;;;;;;;23.77;80.41;98515.53;5049617;28;19940;-65
2023/08/21 05:44:22;;;;;;;;;;;;;;;23.72;81.16;98521.44;5049137;28;20015;-65
2023/08/21 05:46:51;;;;;;;;;;;;;;;23.71;82.24;98528.97;5044370;28;20007;-66
2023/08/21 05:49:19;;;;;;;;;;;;;;;23.76;81.88;98525.06;5043141;28;19928;-65
2023/08/21 05:51:46;;;;;;;;;;;;;;;23.83;81.84;98527.88;5048471;28;19925;-66
2023/08/21 05:54:17;;;;;;;;;;;;;;;23.82;81.84;98529.06;5047524;28;20358;-66
2023/08/21 05:56:45;;;;;;;;;;;;;;;23.86;82.15;98529.88;5071475;28;20304;-67
2023/08/21 05:59:21;;;;;;;;;;;;;;;23.78;81.68;98531.00;5071900;28;20009;-65
2023/08/21 06:04:40;;;;;;;;;;;;;;;23.88;81.62;98533.06;5031497;23;19933;-89
2023/08/21 06:07:09;;;;;;;;;;;;;;;23.91;81.21;98537.03;4967744;28;19926;-87
2023/08/21 06:09:37;;;;;;;;;;;;;;;23.82;81.32;98545.72;4964969;28;19930;-87
2023/08/21 06:12:08;;;;;;;;;;;;;;;23.89;81.82;98540.22;4977586;28;20021;-89
2023/08/21 06:14:40;;;;;;;;;;;;;;;23.91;81.96;98535.06;4976619;28;19930;-89
2023/08/21 06:17:09;;;;;;;;;;;;;;;23.94;81.29;98537.06;4955580;28;19927;-88
2023/08/21 06:19:37;;;;;;;;;;;;;;;24.00;81.74;98540.28;4937874;29;19937;-89
2023/08/21 06:22:06;;;;;;;;;;;;;;;24.00;81.05;98541.09;4935926;29;19938;-89
2023/08/21 06:24:34;;;;;;;;;;;;;;;24.01;80.90;98541.88;4944391;28;19926;-89
2023/08/21 06:27:04;;;;;;;;;;;;;;;23.99;81.30;98545.03;4934951;29;19926;-89
2023/08/21 06:29:35;;;;;;;;;;;;;;;24.05;81.67;98543.50;4930333;29;20408;-89
2023/08/21 06:32:06;;;;;;;;;;;;;;;24.04;80.82;98543.91;4929401;29;19938;-88
2023/08/21 06:34:35;;;;;;;;;;;;;;;24.07;80.78;98551.44;4944743;29;19943;-89
2023/08/21 06:37:03;;;;;;;;;;;;;;;24.09;81.37;98543.53;4930506;29;20306;-87
2023/08/21 06:39:31;;;;;;;;;;;;;;;24.08;81.01;98544.72;4935616;29;19985;-89
2023/08/21 06:42:00;;;;;;;;;;;;;;;24.07;80.75;98545.88;4941230;28;20017;-89
2023/08/21 06:44:36;;;;;;;;;;;;;;;24.08;80.77;98547.50;4938613;29;20465;-88
2023/08/21 06:47:04;;;;;;;;;;;;;;;24.14;80.82;98545.16;4926955;29;20386;-89
2023/08/21 06:49:33;;;;;;;;;;;;;;;24.19;80.97;98553.13;4945070;29;19973;-78
2023/08/21 06:52:03;;;;;;;;;;;;;;;24.12;80.36;98544.72;4931002;29;19982;-77
2023/08/21 06:54:31;;;;;;;;;;;;;;;24.13;80.07;98543.53;4929346;28;19934;-76
2023/08/21 06:56:59;;;;;;;;;;;;;;;24.24;79.69;98550.78;4933630;28;20382;-77
2023/08/21 06:59:26;;;;;;;;;;;;;;;24.28;79.89;98548.00;4924605;29;19959;-80
2023/08/21 07:01:54;;;;;;;;;;;;;;;24.30;79.69;98545.66;4921588;29;19950;-80
2023/08/21 07:04:22;;;;;;;;;;;;;;;24.32;79.86;98543.28;4926160;29;19927;-77
2023/08/21 07:06:51;;;;;;;;;;;;;;;24.35;79.20;98550.88;4929367;29;19930;-79
2023/08/21 07:09:20;;;;;;;;;;;;;;;24.39;79.21;98551.69;4932355;29;19970;-79
2023/08/21 07:11:50;;;;;;;;;;;;;;;24.40;78.40;98558.06;4930142;28;19950;-76
2023/08/21 07:14:20;;;;;;;;;;;;;;;24.41;78.56;98557.66;4933486;29;19933;-77
2023/08/21 07:16:48;;;;;;;;;;;;;;;24.41;78.72;98554.88;4925750;28;20025;-78
2023/08/21 07:19:17;;;;;;;;;;;;;;;24.51;77.94;98558.91;4922727;28;19927;-77
2023/08/21 07:21:45;;;;;;;;;;;;;;;24.55;78.24;98560.53;4938139;29;20400;-79
2023/08/21 07:24:14;;;;;;;;;;;;;;;24.65;77.77;98558.16;4930815;29;19931;-77
2023/08/21 07:26:42;;;;;;;;;;;;;;;24.72;77.97;98563.78;4928697;29;20007;-76
2023/08/21 07:29:10;;;;;;;;;;;;;;;24.74;78.29;98561.41;4937314;28;19933;-77
2023/08/21 07:31:38;;;;;;;;;;;;;;;24.77;77.51;98566.19;4924824;29;20271;-79
2023/08/21 07:34:06;;;;;;;;;;;;;;;24.76;77.46;98564.56;4942288;28;19933;-77
2023/08/21 07:36:34;;;;;;;;;;;;;;;24.82;77.45;98569.38;4927666;29;20338;-78
2023/08/21 07:39:02;;;;;;;;;;;;;;;24.86;77.47;98568.59;4931716;29;19974;-76
2023/08/21 07:41:32;;;;;;;;;;;;;;;24.89;77.24;98567.81;4933441;29;19934;-77
2023/08/21 07:43:59;;;;;;;;;;;;;;;24.99;76.78;98567.06;4945773;29;20412;-77
2023/08/21 07:46:27;;;;;;;;;;;;;;;25.04;75.87;98575.81;4928391;28;19994;-78
2023/08/21 07:48:55;;;;;;;;;;;;;;;25.04;74.91;98577.81;4932502;29;19931;-77
2023/08/21 07:51:23;;;;;;;;;;;;;;;25.05;75.80;98577.41;4934027;28;19946;-77
2023/08/21 07:53:51;;;;;;;;;;;;;;;25.07;75.75;98583.41;4932671;29;19927;-77
2023/08/21 07:56:19;;;;;;;;;;;;;;;25.14;75.77;98573.50;4933110;29;19927;-77
2023/08/21 07:58:48;;;;;;;;;;;;;;;25.13;75.35;98577.47;4930876;29;20009;-77
2023/08/21 08:01:16;;;;;;;;;;;;;;;25.14;75.08;98579.03;4918400;29;20278;-79
2023/08/21 08:03:44;;;;;;;;;;;;;;;25.07;74.93;98583.41;4930280;29;19990;-78
2023/08/21 08:06:12;;;;;;;;;;;;;;;25.12;74.76;98587.00;4930996;29;19934;-77
2023/08/21 08:08:40;;;;;;;;;;;;;;;25.16;74.58;98587.81;4930848;29;19949;-77
2023/08/21 08:11:08;;;;;;;;;;;;;;;25.24;73.79;98586.63;4929398;29;19962;-77
2023/08/21 08:13:36;;;;;;;;;;;;;;;25.29;74.05;98583.47;4931439;29;19937;-79
2023/08/21 08:16:05;;;;;;;;;;;;;;;25.35;73.69;98587.44;4926362;28;19927;-78
2023/08/21 08:18:33;;;;;;;;;;;;;;;25.39;73.79;98588.25;4932071;29;19927;-77
2023/08/21 08:21:01;;;;;;;;;;;;;;;25.43;73.58;98577.94;4931269;29;19930;-78
2023/08/21 08:23:29;;;;;;;;;;;;;;;25.54;73.76;98575.97;4931933;29;19962;-77
2023/08/21 08:25:57;;;;;;;;;;;;;;;25.52;73.72;98578.38;4932281;29;19933;-77
2023/08/21 08:28:25;;;;;;;;;;;;;;;25.60;72.77;98581.94;4939028;29;20240;-76
2023/08/21 08:30:53;;;;;;;;;;;;;;;25.63;71.76;98586.75;4926719;28;20321;-77
2023/08/21 08:33:25;;;;;;;;;;;;;;;25.67;71.35;98586.72;4929979;29;20009;-79
2023/08/21 08:35:53;;;;;;;;;;;;;;;25.68;72.04;98586.34;4930863;29;19938;-79
2023/08/21 08:38:21;;;;;;;;;;;;;;;25.80;71.71;98582.41;4941031;28;20483;-78
2023/08/21 08:40:49;;;;;;;;;;;;;;;25.80;70.22;98585.19;4932469;29;19930;-78
2023/08/21 08:43:17;;;;;;;;;;;;;;;25.82;72.05;98580.81;4922537;29;19931;-78
2023/08/21 08:45:45;;;;;;;;;;;;;;;25.92;71.49;98590.34;4930358;29;19958;-79
2023/08/21 08:48:15;;;;;;;;;;;;;;;25.94;71.70;98589.97;4932289;29;20453;-77
2023/08/21 08:50:44;;;;;;;;;;;;;;;25.99;71.26;98584.78;4931370;29;19937;-79
2023/08/21 08:53:12;;;;;;;;;;;;;;;26.05;71.34;98582.44;4932614;29;19978;-79
2023/08/21 08:55:44;;;;;;;;;;;;;;;26.16;71.17;98582.41;4926297;29;19926;-79
2023/08/21 08:58:12;;;;;;;;;;;;;;;26.21;71.48;98584.81;4928398;29;19986;-78
2023/08/21 09:00:40;;;;;;;;;;;;;;;26.22;71.53;98581.59;4919652;29;20386;-78
2023/08/21 09:03:10;;;;;;;;;;;;;;;26.18;71.42;98586.38;4932278;29;20326;-78
2023/08/21 09:05:38;;;;;;;;;;;;;;;26.20;70.14;98583.19;4931705;29;19949;-79
2023/08/21 09:08:14;;;;;;;;;;;;;;;26.28;70.69;98579.22;4946017;28;19927;-79
2023/08/21 09:10:42;;;;;;;;;;;;;;;26.32;70.34;98589.16;4933939;29;19957;-81
2023/08/21 09:13:12;;;;;;;;;;;;;;;26.29;69.79;98584.38;4924011;28;19938;-81
2023/08/21 09:15:41;;;;;;;;;;;;;;;26.30;69.85;98585.97;4930377;28;19931;-82
2023/08/21 09:18:10;;;;;;;;;;;;;;;26.37;69.49;98577.63;4925941;29;19927;-80
2023/08/21 09:20:38;;;;;;;;;;;;;;;26.39;69.54;98582.78;4943927;29;19926;-82
2023/08/21 09:23:06;;;;;;;;;;;;;;;26.29;67.56;98580.81;4933173;29;19935;-82
2023/08/21 09:25:36;;;;;;;;;;;;;;;26.29;68.58;98587.16;4929293;29;19927;-83
2023/08/21 09:28:05;;;;;;;;;;;;;;;26.39;68.98;98582.78;4935196;29;19996;-82
2023/08/21 09:30:46;;;;;;;;;;;;;;;26.42;67.92;98575.63;4927276;29;19949;-82
2023/08/21 09:33:20;;;;;;;;;;;;;;;26.45;68.33;98572.84;4929366;29;19926;-80
2023/08/21 09:35:49;;;;;;;;;;;;;;;26.55;67.03;98566.44;4934470;29;19930;-82
2023/08/21 09:38:18;;;;;;;;;;;;;;;26.58;66.32;98574.03;4933411;29;19938;-83
2023/08/21 09:40:52;;;;;;;;;;;;;;;26.56;65.27;98567.25;4935462;28;19938;-82
2023/08/21 09:43:21;;;;;;;;;;;;;;;26.64;65.23;98577.97;4935095;28;19962;-80
2023/08/21 09:45:49;;;;;;;;;;;;;;;26.69;64.79;98564.84;4929445;29;19931;-82
2023/08/21 09:48:16;;;;;;;;;;;;;;;26.68;64.46;98580.72;4933669;29;19933;-82
2023/08/21 09:50:44;;;;;;;;;;;;;;;26.65;65.15;98567.63;4934698;28;19930;-82
2023/08/21 09:53:14;;;;;;;;;;;;;;;26.75;64.90;98564.00;4934750;28;19958;-82
2023/08/21 09:55:42;;;;;;;;;;;;;;;26.78;65.66;98567.97;4934796;28;19931;-81
2023/08/21 09:58:11;;;;;;;;;;;;;;;26.85;65.10;98565.16;4934149;29;20362;-82
2023/08/21 10:00:39;;;;;;;;;;;;;;;26.82;64.85;98558.41;4922395;28;20420;-82
2023/08/21 10:03:09;;;;;;;;;;;;;;;26.88;64.25;98565.13;4934938;29;19927;-82
2023/08/21 10:05:38;;;;;;;;;;;;;;;26.93;62.52;98552.00;4949367;28;20355;-82
2023/08/21 10:08:06;;;;;;;;;;;;;;;27.03;61.22;98556.72;4934899;28;19926;-82
2023/08/21 10:10:35;;;;;;;;;;;;;;;27.10;62.22;98554.72;4933447;29;19934;-81
2023/08/21 10:13:03;;;;;;;;;;;;;;;27.09;61.38;98547.56;4923593;28;19958;-81
2023/08/21 10:15:33;;;;;;;;;;;;;;;27.12;62.05;98546.75;4929529;28;20334;-82
2023/08/21 10:18:16;;;;;;;;;;;;;;;27.13;62.42;98539.97;4934173;28;19970;-81
2023/08/21 10:20:44;;;;;;;;;;;;;;;27.24;62.18;98544.69;4935084;28;19978;-80
2023/08/21 10:23:12;;;;;;;;;;;;;;;27.23;62.50;98537.53;4932263;29;19931;-81
2023/08/21 10:25:42;;;;;;;;;;;;;;;27.18;62.00;98541.53;4930914;29;20302;-80
2023/08/21 10:28:09;;;;;;;;;;;;;;;27.22;62.07;98541.50;4933877;29;19934;-80
2023/08/21 10:30:39;;;;;;;;;;;;;;;27.19;61.62;98539.53;4927732;28;19933;-89
2023/08/21 10:33:09;;;;;;;;;;;;;;;27.21;61.99;98539.91;4933327;29;19942;-89
2023/08/21 10:35:36;;;;;;;;;;;;;;;27.24;62.44;98533.53;4932644;29;19927;-89
2023/08/21 10:38:08;;;;;;;;;;;;;;;27.25;62.58;98538.69;4933110;29;19927;-88
2023/08/21 10:40:37;;;;;;;;;;;;;;;27.32;60.91;98537.84;4934296;28;19986;-89
2023/08/21 10:43:05;;;;;;;;;;;;;;;27.27;60.93;98529.91;4924298;28;19927;-89
2023/08/21 10:45:33;;;;;;;;;;;;;;;27.31;61.13;98525.91;4935984;29;20390;-89
2023/08/21 10:48:04;;;;;;;;;;;;;;;27.35;58.56;98535.06;4928377;29;19962;-89
2023/08/21 10:50:34;;;;;;;;;;;;;;;27.39;56.79;98526.66;4934757;28;20310;-89
2023/08/21 10:53:02;;;;;;;;;;;;;;;27.41;57.68;98521.47;4935997;29;19939;-89
2023/08/21 10:55:29;;;;;;;;;;;;;;;27.47;57.95;98530.19;4942136;29;20013;-89
2023/08/21 10:57:58;;;;;;;;;;;;;;;27.42;56.77;98528.63;4935441;29;20402;-89
2023/08/21 11:00:26;;;;;;;;;;;;;;;27.41;57.27;98525.03;4927871;28;20378;-89
2023/08/21 11:02:53;;;;;;;;;;;;;;;27.42;56.76;98518.25;4942884;29;19938;-88
2023/08/21 11:05:23;;;;;;;;;;;;;;;27.41;55.96;98521.47;4933537;28;19970;-89
2023/08/21 11:07:51;;;;;;;;;;;;;;;27.45;55.33;98516.66;4934037;29;19935;-89
2023/08/21 11:10:24;;;;;;;;;;;;;;;27.50;54.31;98513.44;4933974;29;20398;-89
2023/08/21 11:12:53;;;;;;;;;;;;;;;27.42;54.83;98511.88;4937448;28;20030;-89
2023/08/21 11:15:21;;;;;;;;;;;;;;;27.42;55.59;98509.09;4924749;28;19931;-89
2023/08/21 11:17:57;;;;;;;;;;;;;;;27.59;52.66;98516.56;4932868;29;19994;-89
2023/08/21 11:20:29;;;;;;;;;;;;;;;27.66;52.41;98510.13;4927657;29;19938;-89
2023/08/21 11:22:58;;;;;;;;;;;;;;;27.69;52.64;98510.06;4928063;29;20367;-89
2023/08/21 11:25:27;;;;;;;;;;;;;;;27.85;51.71;98506.78;4930542;29;19926;-89
2023/08/21 11:27:55;;;;;;;;;;;;;;;27.84;51.72;98510.00;4933547;29;20016;-88
2023/08/21 11:30:25;;;;;;;;;;;;;;;27.81;52.34;98499.66;4920469;29;19927;-88
2023/08/21 11:33:05;;;;;;;;;;;;;;;27.88;51.36;98497.59;4920908;29;19927;-89
2023/08/21 11:35:34;;;;;;;;;;;;;;;27.83;53.24;98500.81;4929452;28;19998;-89
2023/08/21 11:38:02;;;;;;;;;;;;;;;27.80;51.96;98504.44;4925806;29;19926;-89
2023/08/21 11:40:30;;;;;;;;;;;;;;;27.90;51.30;98513.91;4925037;29;20418;-82
2023/08/21 11:43:00;;;;;;;;;;;;;;;28.01;51.45;98505.44;4933053;29;19931;-81
2023/08/21 11:45:28;;;;;;;;;;;;;;;28.11;51.36;98505.34;4928085;28;19934;-82
2023/08/21 11:47:56;;;;;;;;;;;;;;;28.08;50.28;98497.81;4934011;28;19953;-81
2023/08/21 11:50:24;;;;;;;;;;;;;;;28.05;52.21;98506.22;4932824;29;19977;-81
2023/08/21 11:52:54;;;;;;;;;;;;;;;28.11;50.72;98507.34;4934032;28;20316;-83
2023/08/21 11:55:23;;;;;;;;;;;;;;;28.12;50.59;98506.13;4932969;29;19934;-82
2023/08/21 11:57:51;;;;;;;;;;;;;;;28.16;48.92;98498.50;4932166;29;19937;-82
2023/08/21 12:00:22;;;;;;;;;;;;;;;28.06;51.60;98500.19;4913382;28;19982;-82
2023/08/21 12:02:56;;;;;;;;;;;;;;;28.02;49.43;98505.06;4933982;29;19938;-82
2023/08/21 12:05:25;;;;;;;;;;;;;;;28.12;49.13;98501.34;4932269;29;19926;-82
2023/08/21 12:07:54;;;;;;;;;;;;;;;28.03;51.56;98506.63;4931569;29;20342;-82
2023/08/21 12:10:25;;;;;;;;;;;;;;;27.99;49.42;98505.88;4924651;29;19938;-82
2023/08/21 12:12:53;;;;;;;;;;;;;;;28.03;49.13;98501.03;4933022;29;19992;-81
2023/08/21 12:15:21;;;;;;;;;;;;;;;28.23;48.92;98503.22;4927627;28;19932;-81
2023/08/21 12:17:49;;;;;;;;;;;;;;;28.34;48.84;98503.97;4931443;29;20390;-81
2023/08/21 12:20:17;;;;;;;;;;;;;;;28.31;48.79;98493.56;4932526;29;19927;-82
2023/08/21 12:22:45;;;;;;;;;;;;;;;28.36;48.66;98498.75;4943573;28;19931;-81
2023/08/21 12:25:16;;;;;;;;;;;;;;;28.25;51.32;98500.81;4921247;29;19930;-81
2023/08/21 12:27:44;;;;;;;;;;;;;;;28.16;50.16;98498.50;4931357;29;20398;-81
2023/08/21 12:30:13;;;;;;;;;;;;;;;28.10;50.60;98495.38;4926440;29;19931;-82
2023/08/21 12:32:41;;;;;;;;;;;;;;;28.10;51.48;98495.38;4929969;29;19931;-80
2023/08/21 12:35:11;;;;;;;;;;;;;;;28.12;50.39;98492.16;4924670;29;19982;-80
2023/08/21 12:37:39;;;;;;;;;;;;;;;28.20;50.37;98496.47;4930875;29;19930;-81
2023/08/21 12:40:08;;;;;;;;;;;;;;;28.21;50.72;98500.84;4927775;29;19982;-81
2023/08/21 12:42:38;;;;;;;;;;;;;;;28.24;50.44;98496.47;4922727;29;19987;-80
2023/08/21 12:45:06;;;;;;;;;;;;;;;28.42;50.05;98491.47;4932572;29;19926;-81
2023/08/21 12:47:34;;;;;;;;;;;;;;;28.53;49.71;98491.34;4941400;29;19931;-80
2023/08/21 12:50:03;;;;;;;;;;;;;;;28.46;50.25;98492.25;4934403;29;19975;-74
2023/08/21 12:52:31;;;;;;;;;;;;;;;28.51;50.53;98485.41;4938196;29;20422;-74
2023/08/21 12:54:59;;;;;;;;;;;;;;;28.61;50.05;98490.88;4944824;28;19948;-74
2023/08/21 12:57:27;;;;;;;;;;;;;;;28.64;50.47;98487.22;4949186;29;20040;-74